createdAt,value
2018-02-08T00:01:08.471Z,25.10
2018-02-08T00:03:35.936Z,24.10
2018-02-08T00:06:03.443Z,27.37
2018-02-08T00:08:30.915Z,28.80
2018-02-08T00:10:58.379Z,26.35
2018-02-08T00:13:25.893Z,28.17
2018-02-08T00:15:53.371Z,27.17
2018-02-08T00:18:20.871Z,28.45
2018-02-08T00:20:48.440Z,29.27
2018-02-08T00:23:15.904Z,25.93
2018-02-08T00:25:43.360Z,27.83
2018-02-08T00:28:10.835Z,27.13
2018-02-08T00:30:38.333Z,28.02
2018-02-08T00:33:05.830Z,26.75
2018-02-08T00:35:33.312Z,26.63
2018-02-08T00:38:00.776Z,28.93
2018-02-08T00:40:28.253Z,27.97
2018-02-08T00:42:55.731Z,28.20
2018-02-08T00:45:23.195Z,27.62
2018-02-08T00:47:50.661Z,25.62
2018-02-08T00:50:18.166Z,27.25
2018-02-08T00:52:45.761Z,26.58
2018-02-08T00:55:13.272Z,27.33
2018-02-08T00:57:40.753Z,27.00
2018-02-08T01:00:08.262Z,26.85
2018-02-08T01:02:35.741Z,27.75
2018-02-08T01:05:03.261Z,27.98
2018-02-08T01:07:30.816Z,29.33
2018-02-08T01:09:58.362Z,28.70
2018-02-08T01:12:25.814Z,25.47
2018-02-08T01:14:53.294Z,27.70
2018-02-08T01:17:20.784Z,29.05
2018-02-08T01:19:48.278Z,29.20
2018-02-08T01:22:15.774Z,26.73
2018-02-08T01:24:43.250Z,27.23
2018-02-08T01:27:10.744Z,30.35
2018-02-08T01:29:38.306Z,28.67
2018-02-08T01:32:05.804Z,29.17
2018-02-08T01:34:33.358Z,28.10
2018-02-08T01:37:00.873Z,28.85
2018-02-08T01:39:28.423Z,30.07
2018-02-08T01:41:55.915Z,30.12
2018-02-08T01:44:23.406Z,30.80
2018-02-08T01:46:50.929Z,29.50
2018-02-08T01:52:20.819Z,30.17
2018-02-08T01:54:48.309Z,32.40
2018-02-08T01:57:15.803Z,30.57
2018-02-08T01:59:43.306Z,29.23
2018-02-08T02:02:10.818Z,30.40
2018-02-08T02:04:38.298Z,28.98
2018-02-08T02:07:05.820Z,30.25
2018-02-08T02:09:34.050Z,30.60
2018-02-08T02:12:01.558Z,32.10
2018-02-08T02:14:29.066Z,31.92
2018-02-08T02:16:56.541Z,32.15
2018-02-08T02:19:24.673Z,31.33
2018-02-08T02:21:52.128Z,33.03
2018-02-08T02:24:19.592Z,30.57
2018-02-08T02:26:47.050Z,30.20
2018-02-08T02:29:14.563Z,30.30
2018-02-08T02:31:42.063Z,32.30
2018-02-08T02:34:09.573Z,30.25
2018-02-08T02:36:37.046Z,31.03
2018-02-08T02:39:04.567Z,31.10
2018-02-08T02:41:32.108Z,32.10
2018-02-08T02:43:59.609Z,30.20
2018-02-08T02:46:27.140Z,31.30
2018-02-08T02:48:54.606Z,31.13
2018-02-08T02:51:22.054Z,30.70
2018-02-08T02:53:49.530Z,31.97
2018-02-08T02:56:16.994Z,29.35
2018-02-08T02:58:44.438Z,32.43
2018-02-08T03:01:11.967Z,31.17
2018-02-08T03:03:39.422Z,32.23
2018-02-08T03:06:07.003Z,32.47
2018-02-08T03:08:34.462Z,31.80
2018-02-08T03:11:01.934Z,34.53
2018-02-08T03:13:29.432Z,32.60
2018-02-08T03:15:56.887Z,34.20
2018-02-08T03:18:24.342Z,30.60
2018-02-08T03:20:51.847Z,32.15
2018-02-08T03:23:19.378Z,31.48
2018-02-08T03:25:46.808Z,32.67
2018-02-08T03:28:14.317Z,30.55
2018-02-08T03:33:43.087Z,30.48
2018-02-08T03:36:10.534Z,30.90
2018-02-08T03:38:38.036Z,33.58
2018-02-08T03:41:05.497Z,32.77
2018-02-08T03:43:32.940Z,30.10
2018-02-08T03:46:00.415Z,31.70
2018-02-08T03:48:27.876Z,32.60
2018-02-08T03:50:55.330Z,32.80
2018-02-08T03:53:22.791Z,30.90
2018-02-08T03:55:50.250Z,31.67
2018-02-08T03:58:17.699Z,33.00
2018-02-08T04:00:45.188Z,33.63
2018-02-08T04:03:12.646Z,34.43
2018-02-08T04:05:40.112Z,34.43
2018-02-08T04:08:07.592Z,32.37
2018-02-08T04:10:35.056Z,31.93
2018-02-08T04:13:02.564Z,31.97
2018-02-08T04:15:30.008Z,32.00
2018-02-08T04:17:57.472Z,31.53
2018-02-08T04:20:24.943Z,33.50
2018-02-08T04:22:52.419Z,30.83
2018-02-08T04:25:19.887Z,32.17
2018-02-08T04:27:47.396Z,30.85
2018-02-08T04:30:15.578Z,32.67
2018-02-08T04:32:43.043Z,31.77
2018-02-08T04:35:10.530Z,35.27
2018-02-08T04:37:37.999Z,32.90
2018-02-08T04:40:17.156Z,32.07
2018-02-08T04:42:56.428Z,31.30
2018-02-08T04:45:35.642Z,34.17
2018-02-08T04:48:08.147Z,32.83
2018-02-08T04:50:35.617Z,32.87
2018-02-08T04:53:03.080Z,34.70
2018-02-08T04:55:30.570Z,34.13
2018-02-08T04:57:58.043Z,34.53
2018-02-08T05:00:25.524Z,30.50
2018-02-08T05:02:52.983Z,32.50
2018-02-08T05:05:20.463Z,32.23
2018-02-08T05:07:47.911Z,35.05
2018-02-08T05:10:15.360Z,33.73
2018-02-08T05:12:42.826Z,33.70
2018-02-08T05:15:10.281Z,33.63
2018-02-08T05:17:37.746Z,34.50
2018-02-08T05:20:05.220Z,32.10
2018-02-08T05:22:32.677Z,33.58
2018-02-08T05:25:00.142Z,33.30
2018-02-08T05:27:27.656Z,34.60
2018-02-08T05:29:55.138Z,32.70
2018-02-08T05:32:22.728Z,32.87
2018-02-08T05:34:50.195Z,32.77
2018-02-08T05:37:17.744Z,35.00
2018-02-08T05:39:45.326Z,33.63
2018-02-08T05:42:13.265Z,35.63
2018-02-08T05:44:40.714Z,33.90
2018-02-08T05:47:08.218Z,36.07
2018-02-08T05:49:35.707Z,36.33
2018-02-08T05:52:03.161Z,35.70
2018-02-08T05:54:30.771Z,37.67
2018-02-08T05:56:58.228Z,36.00
2018-02-08T05:59:25.697Z,36.30
2018-02-08T06:01:53.194Z,36.27
2018-02-08T06:04:20.649Z,36.23
2018-02-08T06:06:48.151Z,36.40
2018-02-08T06:09:15.616Z,38.63
2018-02-08T06:11:43.181Z,42.00
2018-02-08T06:14:10.687Z,38.50
2018-02-08T06:16:38.154Z,37.70
2018-02-08T06:19:05.610Z,41.42
2018-02-08T06:21:33.119Z,34.33
2018-02-08T06:24:00.605Z,37.95
2018-02-08T06:26:28.271Z,37.97
2018-02-08T06:28:55.758Z,36.78
2018-02-08T06:31:23.255Z,36.70
2018-02-08T06:33:50.762Z,37.33
2018-02-08T06:36:18.271Z,38.20
2018-02-08T06:38:45.740Z,37.92
2018-02-08T06:41:13.236Z,39.05
2018-02-08T06:43:40.712Z,35.53
2018-02-08T06:46:08.235Z,38.22
2018-02-08T06:48:35.704Z,35.65
2018-02-08T06:51:03.237Z,37.83
2018-02-08T06:53:30.711Z,36.75
2018-02-08T06:55:58.202Z,37.50
2018-02-08T06:58:25.674Z,36.45
2018-02-08T07:00:53.130Z,37.30
2018-02-08T07:03:20.598Z,35.43
2018-02-08T07:05:48.062Z,37.10
2018-02-08T07:08:15.554Z,36.33
2018-02-08T07:10:43.018Z,36.85
2018-02-08T07:13:10.503Z,34.95
2018-02-08T07:15:37.986Z,35.78
2018-02-08T07:18:05.463Z,37.63
2018-02-08T07:20:32.924Z,34.75
2018-02-08T07:23:00.457Z,35.90
2018-02-08T07:25:27.916Z,38.90
2018-02-08T07:27:55.476Z,36.30
2018-02-08T07:30:22.926Z,38.50
2018-02-08T07:32:50.359Z,38.73
2018-02-08T07:35:17.823Z,35.53
2018-02-08T07:37:45.283Z,36.70
2018-02-08T07:40:12.907Z,38.40
2018-02-08T07:42:40.399Z,34.17
2018-02-08T07:45:07.863Z,36.60
2018-02-08T07:47:35.341Z,37.83
2018-02-08T07:50:02.791Z,36.27
2018-02-08T07:52:30.256Z,40.30
2018-02-08T07:54:57.734Z,34.97
2018-02-08T07:57:25.211Z,35.30
2018-02-08T07:59:52.711Z,37.30
2018-02-08T08:02:20.187Z,35.75
2018-02-08T08:04:47.659Z,36.50
2018-02-08T08:07:15.123Z,34.73
2018-02-08T08:09:42.574Z,37.07
2018-02-08T08:12:10.040Z,36.80
2018-02-08T08:14:37.513Z,34.30
2018-02-08T08:17:04.975Z,35.38
2018-02-08T08:19:32.434Z,36.37
2018-02-08T08:21:59.928Z,38.60
2018-02-08T08:24:27.418Z,37.17
2018-02-08T08:26:54.923Z,38.50
2018-02-08T08:31:55.090Z,36.40
2018-02-08T08:34:22.579Z,36.78
2018-02-08T08:36:50.035Z,37.25
2018-02-08T08:39:17.738Z,37.30
2018-02-08T08:41:45.199Z,34.97
2018-02-08T08:44:12.656Z,37.53
2018-02-08T08:46:40.125Z,35.83
2018-02-08T08:49:07.570Z,38.20
2018-02-08T08:51:35.091Z,37.83
2018-02-08T08:54:02.554Z,36.85
2018-02-08T08:56:30.056Z,36.10
2018-02-08T08:58:57.545Z,38.50
2018-02-08T09:01:25.028Z,38.47
2018-02-08T09:03:52.548Z,36.63
2018-02-08T09:06:20.022Z,36.47
2018-02-08T09:08:48.477Z,38.57
2018-02-08T09:11:15.955Z,35.90
2018-02-08T09:13:43.410Z,39.53
2018-02-08T09:16:10.874Z,35.93
2018-02-08T09:18:38.374Z,35.40
2018-02-08T09:21:05.817Z,36.67
2018-02-08T09:23:33.288Z,38.10
2018-02-08T09:26:00.734Z,35.37
2018-02-08T09:28:28.212Z,36.47
2018-02-08T09:30:55.686Z,37.33
2018-02-08T09:33:23.149Z,35.58
2018-02-08T09:35:50.635Z,36.93
2018-02-08T09:38:18.168Z,38.23
2018-02-08T09:40:45.621Z,36.70
2018-02-08T09:43:13.110Z,35.73
2018-02-08T09:45:40.584Z,35.70
2018-02-08T09:48:08.093Z,35.60
2018-02-08T09:50:35.565Z,34.53
2018-02-08T09:53:03.024Z,37.35
2018-02-08T09:55:30.505Z,37.43
2018-02-08T09:57:57.965Z,38.00
2018-02-08T10:00:26.155Z,37.47
2018-02-08T10:02:53.901Z,34.40
2018-02-08T10:05:21.382Z,37.50
2018-02-08T10:07:48.821Z,38.17
2018-02-08T10:10:16.294Z,36.80
2018-02-08T10:12:43.759Z,36.93
2018-02-08T10:15:11.227Z,38.10
2018-02-08T10:17:38.699Z,38.13
2018-02-08T10:20:06.154Z,38.43
2018-02-08T10:22:33.687Z,38.65
2018-02-08T10:25:01.177Z,38.50
2018-02-08T10:27:28.626Z,39.70
2018-02-08T10:29:56.090Z,37.90
2018-02-08T10:32:23.587Z,39.60
2018-02-08T10:34:51.054Z,38.70
2018-02-08T10:37:18.539Z,38.07
2018-02-08T10:39:45.978Z,37.67
2018-02-08T10:42:13.432Z,38.60
2018-02-08T10:44:40.911Z,34.43
2018-02-08T10:47:08.359Z,37.37
2018-02-08T10:49:35.837Z,38.40
2018-02-08T10:52:03.288Z,40.40
2018-02-08T10:54:30.764Z,36.83
2018-02-08T10:56:58.220Z,37.67
2018-02-08T10:59:25.681Z,39.80
2018-02-08T11:01:53.144Z,38.70
2018-02-08T11:04:20.606Z,37.83
2018-02-08T11:06:48.072Z,38.50
2018-02-08T11:09:15.714Z,40.30
2018-02-08T11:11:43.210Z,40.63
2018-02-08T11:14:10.666Z,38.90
2018-02-08T11:16:38.258Z,38.70
2018-02-08T11:19:05.721Z,41.67
2018-02-08T11:21:33.178Z,40.93
2018-02-08T11:24:00.633Z,39.80
2018-02-08T11:26:28.219Z,38.60
2018-02-08T11:28:55.676Z,39.57
2018-02-08T11:31:23.118Z,38.90
2018-02-08T11:33:50.582Z,41.10
2018-02-08T11:36:18.052Z,39.33
2018-02-08T11:38:45.545Z,40.83
2018-02-08T11:41:13.015Z,37.63
2018-02-08T11:43:40.470Z,39.17
2018-02-08T11:46:07.965Z,39.60
2018-02-08T11:48:35.568Z,38.50
2018-02-08T11:51:03.044Z,41.63
2018-02-08T11:53:30.510Z,41.40
2018-02-08T11:55:58.515Z,39.23
2018-02-08T11:58:26.002Z,39.63
2018-02-08T12:00:53.483Z,40.60
2018-02-08T12:03:20.933Z,37.50
2018-02-08T12:05:48.451Z,38.70
2018-02-08T12:08:15.912Z,37.57
2018-02-08T12:10:43.431Z,39.03
2018-02-08T12:13:10.910Z,38.40
2018-02-08T12:15:38.378Z,37.63
2018-02-08T12:18:05.860Z,39.47
2018-02-08T12:20:33.369Z,37.03
2018-02-08T12:23:00.805Z,37.40
2018-02-08T12:25:28.264Z,40.50
2018-02-08T12:27:55.731Z,40.60
2018-02-08T12:30:23.177Z,39.80
2018-02-08T12:32:50.675Z,38.37
2018-02-08T12:35:18.146Z,40.23
2018-02-08T12:37:45.618Z,40.23
2018-02-08T12:40:13.076Z,38.67
2018-02-08T12:42:40.541Z,39.27
2018-02-08T12:45:07.988Z,38.13
2018-02-08T12:47:35.429Z,38.37
2018-02-08T12:50:02.919Z,36.23
2018-02-08T12:52:30.390Z,37.83
2018-02-08T12:54:57.853Z,39.10
2018-02-08T12:57:25.311Z,39.97
2018-02-08T12:59:52.770Z,37.13
2018-02-08T13:02:20.285Z,39.63
2018-02-08T13:04:48.697Z,38.50
2018-02-08T13:07:16.182Z,38.63
2018-02-08T13:09:43.660Z,37.73
2018-02-08T13:12:11.122Z,39.50
2018-02-08T13:14:38.583Z,41.27
2018-02-08T13:17:06.045Z,38.37
2018-02-08T13:19:33.510Z,39.67
2018-02-08T13:22:00.986Z,38.87
2018-02-08T13:24:28.454Z,39.20
2018-02-08T13:26:55.916Z,38.77
2018-02-08T13:29:23.382Z,39.40
2018-02-08T13:31:54.283Z,40.80
2018-02-08T13:34:21.758Z,38.40
2018-02-08T13:36:49.226Z,39.40
2018-02-08T13:39:21.285Z,40.40
2018-02-08T13:41:48.795Z,41.10
2018-02-08T13:44:16.409Z,40.60
2018-02-08T13:46:43.887Z,39.73
2018-02-08T13:49:26.058Z,40.73
2018-02-08T13:55:02.732Z,39.67
2018-02-08T13:57:35.804Z,41.97
2018-02-08T14:00:04.083Z,40.73
2018-02-08T14:02:31.556Z,41.77
2018-02-08T14:04:59.039Z,42.70
2018-02-08T14:07:26.511Z,42.33
2018-02-08T14:09:54.062Z,41.77
2018-02-08T14:12:21.531Z,44.23
2018-02-08T14:14:48.975Z,44.37
2018-02-08T14:17:16.433Z,45.77
2018-02-08T14:19:43.911Z,42.00
2018-02-08T14:22:11.370Z,45.57
2018-02-08T14:24:38.814Z,45.10
2018-02-08T14:27:06.371Z,41.87
2018-02-08T14:29:33.829Z,43.67
2018-02-08T14:32:01.278Z,43.17
2018-02-08T14:34:28.751Z,44.73
2018-02-08T14:36:56.228Z,43.57
2018-02-08T14:39:23.726Z,45.50
2018-02-08T14:41:51.181Z,42.70
2018-02-08T14:44:18.675Z,45.88
2018-02-08T14:46:46.158Z,40.43
2018-02-08T14:49:13.632Z,41.22
2018-02-08T14:51:41.147Z,43.05
2018-02-08T14:54:08.682Z,44.90
2018-02-08T14:56:36.172Z,45.07
2018-02-08T14:59:03.660Z,43.80
2018-02-08T15:01:31.177Z,43.47
2018-02-08T15:03:58.660Z,45.13
2018-02-08T15:06:26.208Z,46.47
2018-02-08T15:08:53.686Z,45.03
2018-02-08T15:11:21.181Z,43.80
2018-02-08T15:13:48.705Z,44.15
2018-02-08T15:16:16.188Z,42.42
2018-02-08T15:18:43.691Z,45.30
2018-02-08T15:21:11.226Z,44.38
2018-02-08T15:23:38.738Z,44.03
2018-02-08T15:26:06.317Z,44.23
2018-02-08T15:28:33.789Z,45.00
2018-02-08T15:31:01.268Z,47.58
2018-02-08T15:33:28.748Z,45.20
2018-02-08T15:35:56.224Z,45.60
2018-02-08T15:38:23.714Z,43.05
2018-02-08T15:40:51.220Z,42.80
2018-02-08T15:43:18.707Z,45.50
2018-02-08T15:45:46.200Z,44.65
2018-02-08T15:48:13.701Z,41.55
2018-02-08T15:50:41.200Z,45.60
2018-02-08T15:53:08.737Z,42.78
2018-02-08T15:55:36.223Z,44.80
2018-02-08T15:58:03.719Z,46.80
2018-02-08T16:00:31.222Z,46.47
2018-02-08T16:02:58.727Z,44.10
2018-02-08T16:05:26.234Z,43.03
2018-02-08T16:07:53.711Z,44.08
2018-02-08T16:10:21.233Z,43.72
2018-02-08T16:12:48.706Z,44.80
2018-02-08T16:15:16.228Z,44.60
2018-02-08T16:17:43.733Z,47.13
2018-02-08T16:20:11.234Z,44.88
2018-02-08T16:22:38.745Z,45.67
2018-02-08T16:25:06.253Z,43.97
2018-02-08T16:27:33.699Z,43.60
2018-02-08T16:30:01.188Z,45.20
2018-02-08T16:32:28.691Z,43.70
2018-02-08T16:34:56.184Z,45.70
2018-02-08T16:37:23.703Z,47.53
2018-02-08T16:39:51.186Z,43.78
2018-02-08T16:42:18.716Z,46.00
2018-02-08T16:44:46.183Z,48.92
2018-02-08T16:47:13.647Z,47.33
2018-02-08T16:49:41.127Z,49.33
2018-02-08T16:52:08.715Z,49.38
2018-02-08T16:54:36.249Z,48.27
2018-02-08T16:57:03.759Z,48.25
2018-02-08T16:59:31.257Z,48.22
2018-02-08T17:01:58.758Z,47.22
2018-02-08T17:04:26.258Z,50.47
2018-02-08T17:06:53.858Z,48.83
2018-02-08T17:09:21.474Z,50.67
2018-02-08T17:11:48.946Z,51.23
2018-02-08T17:14:16.478Z,48.93
2018-02-08T17:16:44.018Z,51.97
2018-02-08T17:19:11.586Z,50.15
2018-02-08T17:21:39.075Z,49.83
2018-02-08T17:24:06.577Z,46.53
2018-02-08T17:26:34.057Z,50.00
2018-02-08T17:29:01.574Z,48.60
2018-02-08T17:31:29.084Z,48.80
2018-02-08T17:33:56.547Z,50.20
2018-02-08T17:36:24.038Z,48.35
2018-02-08T17:38:51.566Z,51.30
2018-02-08T17:41:19.082Z,50.15
2018-02-08T17:43:46.580Z,50.70
2018-02-08T17:46:14.062Z,47.47
2018-02-08T17:48:41.779Z,49.58
2018-02-08T17:51:09.440Z,48.83
2018-02-08T17:53:36.924Z,50.63
2018-02-08T17:56:04.393Z,50.73
2018-02-08T17:58:31.950Z,50.60
2018-02-08T18:00:59.497Z,54.72
2018-02-08T18:03:27.027Z,49.78
2018-02-08T18:05:54.564Z,51.33
2018-02-08T18:08:22.143Z,46.92
2018-02-08T18:10:49.633Z,50.17
2018-02-08T18:13:17.118Z,48.92
2018-02-08T18:15:44.651Z,47.45
2018-02-08T18:18:12.358Z,52.22
2018-02-08T18:20:40.588Z,48.28
2018-02-08T18:23:08.059Z,48.35
2018-02-08T18:25:35.582Z,49.03
2018-02-08T18:28:03.067Z,46.77
2018-02-08T18:30:30.575Z,50.35
2018-02-08T18:32:58.075Z,48.55
2018-02-08T18:35:25.611Z,50.85
2018-02-08T18:37:53.087Z,48.70
2018-02-08T18:40:20.568Z,49.38
2018-02-08T18:42:48.042Z,50.92
2018-02-08T18:45:16.002Z,48.50
2018-02-08T18:47:43.498Z,47.45
2018-02-08T18:50:11.013Z,50.33
2018-02-08T18:52:38.492Z,47.47
2018-02-08T18:55:05.997Z,49.60
2018-02-08T18:57:33.490Z,49.42
2018-02-08T19:00:00.989Z,50.50
2018-02-08T19:02:28.475Z,49.33
2018-02-08T19:04:55.951Z,50.90
2018-02-08T19:07:23.486Z,49.90
2018-02-08T19:09:50.979Z,50.42
2018-02-08T19:12:18.472Z,49.45
2018-02-08T19:14:45.940Z,48.13
2018-02-08T19:17:13.415Z,52.00
2018-02-08T19:19:40.910Z,49.95
2018-02-08T19:22:08.459Z,51.45
2018-02-08T19:24:36.369Z,51.75
2018-02-08T19:27:03.892Z,51.43
2018-02-08T19:29:31.407Z,52.47
2018-02-08T19:31:58.994Z,53.47
2018-02-08T19:34:26.484Z,52.92
2018-02-08T19:36:53.966Z,50.95
2018-02-08T19:39:21.491Z,49.80
2018-02-08T19:41:48.952Z,51.83
2018-02-08T19:44:16.438Z,51.92
2018-02-08T19:46:43.945Z,53.38
2018-02-08T19:49:11.426Z,55.10
2018-02-08T19:51:38.927Z,51.25
2018-02-08T19:54:06.680Z,52.88
2018-02-08T19:56:34.958Z,57.10
2018-02-08T19:59:02.470Z,52.80
2018-02-08T20:01:30.000Z,52.90
2018-02-08T20:03:57.560Z,54.42
2018-02-08T20:06:25.231Z,53.78
2018-02-08T20:08:52.755Z,54.25
2018-02-08T20:11:20.258Z,54.38
2018-02-08T20:13:47.795Z,53.65
2018-02-08T20:16:15.276Z,55.42
2018-02-08T20:18:42.781Z,54.50
2018-02-08T20:21:10.266Z,53.83
2018-02-08T20:23:37.761Z,52.97
2018-02-08T20:26:05.330Z,53.75
2018-02-08T20:28:33.182Z,51.25
2018-02-08T20:31:06.039Z,56.50
2018-02-08T20:33:33.636Z,53.85
2018-02-08T20:36:01.115Z,53.28
2018-02-08T20:38:28.625Z,50.60
2018-02-08T20:40:56.137Z,55.83
2018-02-08T20:43:32.012Z,54.88
2018-02-08T20:45:59.698Z,54.15
2018-02-08T20:48:27.465Z,54.15
2018-02-08T20:50:54.988Z,54.92
2018-02-08T20:53:22.508Z,53.08
2018-02-08T20:55:49.997Z,58.50
2018-02-08T20:58:17.501Z,56.05
2018-02-08T21:00:44.981Z,56.95
2018-02-08T21:03:12.536Z,55.97
2018-02-08T21:05:40.058Z,55.58
2018-02-08T21:08:07.563Z,56.40
2018-02-08T21:10:35.172Z,55.85
2018-02-08T21:13:02.679Z,54.33
2018-02-08T21:15:30.170Z,55.47
2018-02-08T21:17:57.659Z,55.88
2018-02-08T21:20:25.151Z,57.75
2018-02-08T21:22:52.936Z,53.50
2018-02-08T21:25:20.471Z,55.20
2018-02-08T21:27:47.939Z,54.95
2018-02-08T21:30:15.432Z,54.10
2018-02-08T21:32:42.910Z,54.95
2018-02-08T21:35:10.396Z,57.25
2018-02-08T21:37:37.959Z,57.85
2018-02-08T21:40:05.541Z,58.08
2018-02-08T21:42:33.026Z,55.90
2018-02-08T21:45:00.520Z,54.60
2018-02-08T21:47:28.103Z,56.83
2018-02-08T21:49:55.657Z,55.40
2018-02-08T21:52:23.137Z,56.67
2018-02-08T21:54:51.135Z,54.03
2018-02-08T21:57:18.613Z,58.35
2018-02-08T21:59:46.130Z,53.53
2018-02-08T22:02:13.769Z,55.50
2018-02-08T22:04:41.282Z,55.60
2018-02-08T22:07:08.771Z,57.62
2018-02-08T22:09:36.274Z,55.65
2018-02-08T22:12:03.851Z,56.78
2018-02-08T22:14:31.464Z,55.22
2018-02-08T22:16:58.984Z,56.60
2018-02-08T22:19:26.486Z,53.23
2018-02-08T22:21:54.041Z,57.75
2018-02-08T22:24:21.545Z,54.72
2018-02-08T22:26:49.029Z,56.47
2018-02-08T22:29:16.545Z,55.50
2018-02-08T22:31:44.033Z,56.37
2018-02-08T22:34:11.592Z,56.70
2018-02-08T22:36:39.091Z,56.00
2018-02-08T22:39:06.601Z,55.10
2018-02-08T22:41:34.830Z,55.05
2018-02-08T22:44:02.333Z,56.70
2018-02-08T22:46:29.828Z,56.97
2018-02-08T22:48:57.307Z,58.25
2018-02-08T22:51:24.860Z,57.53
2018-02-08T22:53:52.378Z,57.83
2018-02-08T22:56:19.892Z,54.97
2018-02-08T22:58:47.507Z,59.00
2018-02-08T23:01:14.975Z,56.58
2018-02-08T23:03:42.541Z,56.90
2018-02-08T23:06:10.048Z,55.40
2018-02-08T23:08:37.525Z,56.47
2018-02-08T23:11:06.301Z,57.92
2018-02-08T23:13:33.992Z,60.05
2018-02-08T23:16:01.547Z,59.58
2018-02-08T23:18:32.183Z,60.60
2018-02-08T23:20:59.665Z,58.45
2018-02-08T23:23:27.176Z,55.95
2018-02-08T23:25:54.676Z,56.40
2018-02-08T23:28:22.184Z,58.38
2018-02-08T23:30:49.666Z,59.88
2018-02-08T23:33:17.253Z,58.87
2018-02-08T23:35:44.817Z,59.33
2018-02-08T23:38:12.320Z,56.37
2018-02-08T23:40:39.789Z,58.58
2018-02-08T23:43:07.271Z,57.80
2018-02-08T23:45:34.730Z,58.85
2018-02-08T23:48:02.241Z,61.15
2018-02-08T23:50:29.715Z,59.63
2018-02-08T23:52:57.179Z,58.10
2018-02-08T23:55:24.662Z,59.70
2018-02-08T23:57:52.135Z,63.80
